createdAt,value
2022-09-18T00:01:10.739Z,0.97
2022-09-18T00:03:38.837Z,1.20
2022-09-18T00:06:09.064Z,1.37
2022-09-18T00:08:38.440Z,1.27
2022-09-18T00:11:08.572Z,1.33
2022-09-18T00:13:37.202Z,1.30
2022-09-18T00:16:05.389Z,1.07
2022-09-18T00:18:34.705Z,1.03
2022-09-18T00:21:05.724Z,1.10
2022-09-18T00:23:33.592Z,1.20
2022-09-18T00:26:01.541Z,1.33
2022-09-18T00:28:29.933Z,1.10
2022-09-18T00:31:03.536Z,1.17
2022-09-18T00:33:31.551Z,1.63
2022-09-18T00:36:03.305Z,1.50
2022-09-18T00:38:32.693Z,1.17
2022-09-18T00:41:00.911Z,1.10
2022-09-18T00:43:31.246Z,1.30
2022-09-18T00:46:02.288Z,1.10
2022-09-18T00:48:37.604Z,1.40
2022-09-18T00:51:07.058Z,0.97
2022-09-18T00:53:37.032Z,1.50
2022-09-18T00:56:06.176Z,1.10
2022-09-18T00:58:34.508Z,1.37
2022-09-18T01:01:02.830Z,0.93
2022-09-18T01:03:31.294Z,1.07
2022-09-18T01:06:11.683Z,1.23
2022-09-18T01:08:51.068Z,1.00
2022-09-18T01:11:35.223Z,0.90
2022-09-18T01:14:14.646Z,1.77
2022-09-18T01:16:47.728Z,1.40
2022-09-18T01:19:31.646Z,1.10
2022-09-18T01:22:16.041Z,1.00
2022-09-18T01:24:59.828Z,1.30
2022-09-18T01:27:36.643Z,2.13
2022-09-18T01:30:08.783Z,1.30
2022-09-18T01:32:42.174Z,1.10
2022-09-18T01:35:39.507Z,1.23
2022-09-18T01:38:08.827Z,0.90
2022-09-18T01:40:40.409Z,0.80
2022-09-18T01:43:12.248Z,1.17
2022-09-18T01:45:46.016Z,1.10
2022-09-18T01:48:19.234Z,0.80
2022-09-18T01:50:53.032Z,0.90
2022-09-18T01:53:25.478Z,0.80
2022-09-18T01:56:00.266Z,1.13
2022-09-18T01:58:29.986Z,1.20
2022-09-18T02:01:01.915Z,1.07
2022-09-18T02:03:33.406Z,1.10
2022-09-18T02:06:06.119Z,1.20
2022-09-18T02:08:40.112Z,0.97
2022-09-18T02:11:11.243Z,1.27
2022-09-18T02:13:42.103Z,1.27
2022-09-18T02:16:15.016Z,1.07
2022-09-18T02:18:47.408Z,1.33
2022-09-18T02:21:18.389Z,1.27
2022-09-18T02:23:47.187Z,1.63
2022-09-18T02:26:16.036Z,1.07
2022-09-18T02:28:45.778Z,1.10
2022-09-18T02:31:15.020Z,1.27
2022-09-18T02:33:43.192Z,1.50
2022-09-18T02:36:39.900Z,1.30
2022-09-18T02:39:18.649Z,1.60
2022-09-18T02:41:52.582Z,1.17
2022-09-18T02:44:28.567Z,1.53
2022-09-18T02:47:09.788Z,1.33
2022-09-18T02:49:45.593Z,1.37
2022-09-18T02:52:19.792Z,1.40
2022-09-18T02:54:53.308Z,1.80
2022-09-18T02:57:27.943Z,1.50
2022-09-18T02:59:59.312Z,1.10
2022-09-18T03:02:28.946Z,1.20
2022-09-18T03:04:57.019Z,1.37
2022-09-18T03:07:24.989Z,1.30
2022-09-18T03:09:52.774Z,1.40
2022-09-18T03:12:20.919Z,1.13
2022-09-18T03:14:48.741Z,1.27
2022-09-18T03:17:16.608Z,1.27
2022-09-18T03:19:45.871Z,0.90
2022-09-18T03:22:13.753Z,1.40
2022-09-18T03:24:41.540Z,1.33
2022-09-18T03:27:10.480Z,1.20
2022-09-18T03:29:38.368Z,1.27
2022-09-18T03:32:06.386Z,1.23
2022-09-18T03:34:34.221Z,1.60
2022-09-18T03:37:03.706Z,1.23
2022-09-18T03:39:31.573Z,1.87
2022-09-18T03:41:59.397Z,1.20
2022-09-18T03:44:27.330Z,1.40
2022-09-18T03:46:55.242Z,1.77
2022-09-18T03:49:23.102Z,1.30
2022-09-18T03:51:50.908Z,1.50
2022-09-18T03:54:20.054Z,1.47
2022-09-18T03:56:48.546Z,1.33
2022-09-18T03:59:16.349Z,1.30
2022-09-18T04:01:44.239Z,1.00
2022-09-18T04:04:13.209Z,1.40
2022-09-18T04:06:41.013Z,1.50
2022-09-18T04:09:08.978Z,2.33
2022-09-18T04:11:38.173Z,1.60
2022-09-18T04:14:05.976Z,1.20
2022-09-18T04:16:33.821Z,1.30
2022-09-18T04:19:01.737Z,1.63
2022-09-18T04:21:29.552Z,1.50
2022-09-18T04:24:00.163Z,1.40
2022-09-18T04:26:28.001Z,1.67
2022-09-18T04:28:57.184Z,1.23
2022-09-18T04:31:25.114Z,1.23
2022-09-18T04:33:52.986Z,1.40
2022-09-18T04:36:20.832Z,1.33
2022-09-18T04:38:48.688Z,1.20
2022-09-18T04:41:16.549Z,1.50
2022-09-18T04:43:44.390Z,1.50
2022-09-18T04:46:13.758Z,1.73
2022-09-18T04:48:41.597Z,1.30
2022-09-18T04:51:09.468Z,1.70
2022-09-18T04:53:37.968Z,1.70
2022-09-18T04:56:06.026Z,1.20
2022-09-18T04:58:34.142Z,1.93
2022-09-18T05:01:02.009Z,1.40
2022-09-18T05:03:31.318Z,1.57
2022-09-18T05:05:59.112Z,1.30
2022-09-18T05:08:29.504Z,1.43
2022-09-18T05:10:57.733Z,1.63
2022-09-18T05:13:25.732Z,1.33
2022-09-18T05:15:55.856Z,1.53
2022-09-18T05:18:24.315Z,1.30
2022-09-18T05:20:54.998Z,1.43
2022-09-18T05:23:22.833Z,2.17
2022-09-18T05:25:50.640Z,1.40
2022-09-18T05:28:19.200Z,2.77
2022-09-18T05:30:47.096Z,1.77
2022-09-18T05:33:15.294Z,1.40
2022-09-18T05:35:43.190Z,1.50
2022-09-18T05:38:13.304Z,1.50
2022-09-18T05:40:41.261Z,2.27
2022-09-18T05:43:10.252Z,1.70
2022-09-18T05:45:38.064Z,1.50
2022-09-18T05:48:07.408Z,1.43
2022-09-18T05:50:37.355Z,1.70
2022-09-18T05:53:06.885Z,1.40
2022-09-18T05:55:36.073Z,1.77
2022-09-18T05:58:05.468Z,1.60
2022-09-18T06:00:35.630Z,1.70
2022-09-18T06:03:05.660Z,1.60
2022-09-18T06:05:35.116Z,1.67
2022-09-18T06:08:04.146Z,1.40
2022-09-18T06:10:33.516Z,1.97
2022-09-18T06:13:03.441Z,2.13
2022-09-18T06:15:31.571Z,1.60
2022-09-18T06:17:59.523Z,1.57
2022-09-18T06:20:28.116Z,1.50
2022-09-18T06:22:59.073Z,1.60
2022-09-18T06:25:26.948Z,1.50
2022-09-18T06:27:58.612Z,1.50
2022-09-18T06:30:28.452Z,1.87
2022-09-18T06:32:56.838Z,1.70
2022-09-18T06:35:24.722Z,1.33
2022-09-18T06:37:52.604Z,1.40
2022-09-18T06:40:20.475Z,1.80
2022-09-18T06:42:48.328Z,1.83
2022-09-18T06:45:16.366Z,1.70
2022-09-18T06:47:45.556Z,1.60
2022-09-18T06:50:13.714Z,1.97
2022-09-18T06:52:41.558Z,1.83
2022-09-18T06:55:09.890Z,1.53
2022-09-18T06:57:37.732Z,1.53
2022-09-18T07:00:06.697Z,1.60
2022-09-18T07:02:34.791Z,1.43
2022-09-18T07:05:04.076Z,1.53
2022-09-18T07:07:31.910Z,1.43
2022-09-18T07:09:59.705Z,1.30
2022-09-18T07:12:29.484Z,1.57
2022-09-18T07:14:57.311Z,1.50
2022-09-18T07:17:26.556Z,1.57
2022-09-18T07:19:54.659Z,1.40
2022-09-18T07:22:24.029Z,2.10
2022-09-18T07:24:51.871Z,1.40
2022-09-18T07:27:19.656Z,1.73
2022-09-18T07:29:47.469Z,1.60
2022-09-18T07:32:15.572Z,1.77
2022-09-18T07:34:43.428Z,1.70
2022-09-18T07:37:11.276Z,1.50
2022-09-18T07:39:40.465Z,1.80
2022-09-18T07:42:09.103Z,1.70
2022-09-18T07:44:37.152Z,1.70
2022-09-18T07:47:05.550Z,1.70
2022-09-18T07:49:33.854Z,1.63
2022-09-18T07:52:02.298Z,1.70
2022-09-18T07:54:30.160Z,1.70
2022-09-18T07:56:59.393Z,1.50
2022-09-18T07:59:27.196Z,1.70
2022-09-18T08:01:55.860Z,1.20
2022-09-18T08:04:23.996Z,1.70
2022-09-18T08:06:54.057Z,1.40
2022-09-18T08:09:22.223Z,1.80
2022-09-18T08:11:54.096Z,1.80
2022-09-18T08:14:28.056Z,1.80
2022-09-18T08:16:57.838Z,1.90
2022-09-18T08:19:26.008Z,1.83
2022-09-18T08:21:53.805Z,1.77
2022-09-18T08:24:21.633Z,1.37
2022-09-18T08:26:49.466Z,1.40
2022-09-18T08:29:19.689Z,1.40
2022-09-18T08:31:49.057Z,1.73
2022-09-18T08:34:16.932Z,1.60
2022-09-18T08:36:44.830Z,1.40
2022-09-18T08:39:12.671Z,1.50
2022-09-18T08:41:52.109Z,2.90
2022-09-18T08:44:24.214Z,1.40
2022-09-18T08:46:59.158Z,1.90
2022-09-18T08:49:33.104Z,1.70
2022-09-18T08:52:05.498Z,2.23
2022-09-18T08:54:47.675Z,1.73
2022-09-18T08:57:20.642Z,2.20
2022-09-18T08:59:52.922Z,1.60
2022-09-18T09:02:42.371Z,1.80
2022-09-18T09:05:13.566Z,1.80
2022-09-18T09:08:17.196Z,1.80
2022-09-18T09:10:55.448Z,1.50
2022-09-18T09:14:02.476Z,1.57
2022-09-18T09:16:40.964Z,2.00
2022-09-18T09:19:22.631Z,1.50
2022-09-18T09:21:58.271Z,1.40
2022-09-18T09:24:33.229Z,1.53
2022-09-18T09:27:11.432Z,2.20
2022-09-18T09:29:44.958Z,2.10
2022-09-18T09:32:23.214Z,1.37
2022-09-18T09:34:56.912Z,1.80
2022-09-18T09:37:33.680Z,1.33
2022-09-18T09:40:07.056Z,1.40
2022-09-18T09:42:42.761Z,1.30
2022-09-18T09:45:15.752Z,1.77
2022-09-18T09:47:48.791Z,2.07
2022-09-18T09:50:35.597Z,1.43
2022-09-18T09:53:07.120Z,1.43
2022-09-18T09:55:43.499Z,1.73
2022-09-18T09:58:22.334Z,1.70
2022-09-18T10:00:58.793Z,1.50
2022-09-18T10:03:35.774Z,2.27
2022-09-18T10:06:15.056Z,2.10
2022-09-18T10:08:48.653Z,2.10
2022-09-18T10:11:17.356Z,1.70
2022-09-18T10:13:49.782Z,1.33
2022-09-18T10:16:21.594Z,1.90
2022-09-18T10:18:50.761Z,1.37
2022-09-18T10:21:21.994Z,1.40
2022-09-18T10:23:55.795Z,1.20
2022-09-18T10:26:27.365Z,1.30
2022-09-18T10:28:55.303Z,1.80
2022-09-18T10:31:23.171Z,1.50
2022-09-18T10:33:53.019Z,1.53
2022-09-18T10:36:30.443Z,1.43
2022-09-18T10:38:59.972Z,1.67
2022-09-18T10:41:31.659Z,1.43
2022-09-18T10:44:05.306Z,1.40
2022-09-18T10:46:35.554Z,1.20
2022-09-18T10:49:20.426Z,1.80
2022-09-18T10:51:49.599Z,1.50
2022-09-18T10:54:19.060Z,1.60
2022-09-18T10:56:47.585Z,1.33
2022-09-18T10:59:34.766Z,1.43
2022-09-18T11:02:06.030Z,1.40
2022-09-18T11:04:34.679Z,1.50
2022-09-18T11:07:07.328Z,1.93
2022-09-18T11:09:38.985Z,1.40
2022-09-18T11:12:15.644Z,1.20
2022-09-18T11:14:46.929Z,1.40
2022-09-18T11:17:26.240Z,1.27
2022-09-18T11:19:56.497Z,1.27
2022-09-18T11:22:41.400Z,1.00
2022-09-18T11:25:20.011Z,1.30
2022-09-18T11:27:50.095Z,1.17
2022-09-18T11:30:23.333Z,1.30
2022-09-18T11:32:54.678Z,1.03
2022-09-18T11:35:23.522Z,1.27
2022-09-18T11:37:55.753Z,1.10
2022-09-18T11:40:26.206Z,1.30
2022-09-18T11:42:55.897Z,1.30
2022-09-18T11:45:47.000Z,1.20
2022-09-18T11:48:24.950Z,1.40
2022-09-18T11:50:56.414Z,1.50
2022-09-18T11:53:28.318Z,1.30
2022-09-18T11:56:03.108Z,1.27
2022-09-18T11:58:35.502Z,2.50
2022-09-18T12:01:14.270Z,1.47
2022-09-18T12:03:47.317Z,1.33
2022-09-18T12:06:23.705Z,1.60
2022-09-18T12:08:56.180Z,1.13
2022-09-18T12:11:32.902Z,0.97
2022-09-18T12:14:09.085Z,1.27
2022-09-18T12:16:46.010Z,1.40
2022-09-18T12:19:19.051Z,1.47
2022-09-18T12:21:54.804Z,1.00
2022-09-18T12:24:24.112Z,1.00
2022-09-18T12:27:01.708Z,1.20
2022-09-18T12:29:42.957Z,1.20
2022-09-18T12:32:26.400Z,1.00
2022-09-18T12:35:03.049Z,1.30
2022-09-18T12:37:45.492Z,1.00
2022-09-18T12:40:36.686Z,1.20
2022-09-18T12:43:34.604Z,0.90
2022-09-18T12:46:26.076Z,0.90
2022-09-18T12:49:21.369Z,1.10
2022-09-18T12:51:55.528Z,0.90
2022-09-18T12:54:38.657Z,1.20
2022-09-18T12:57:22.121Z,0.97
2022-09-18T12:59:55.957Z,0.90
2022-09-18T13:02:31.881Z,0.97
2022-09-18T13:05:05.498Z,0.90
2022-09-18T13:07:38.416Z,0.80
2022-09-18T13:10:11.869Z,1.10
2022-09-18T13:12:43.860Z,0.80
2022-09-18T13:15:18.021Z,1.00
2022-09-18T13:17:50.820Z,1.60
2022-09-18T13:20:24.752Z,1.30
2022-09-18T13:22:54.245Z,1.03
2022-09-18T13:25:27.623Z,1.10
2022-09-18T13:27:58.260Z,2.83
2022-09-18T13:30:28.926Z,2.07
2022-09-18T13:32:58.558Z,2.17
2022-09-18T13:35:29.905Z,2.37
2022-09-18T13:38:14.575Z,1.60
2022-09-18T13:40:44.638Z,1.20
2022-09-18T13:43:25.310Z,1.47
2022-09-18T13:45:53.888Z,1.43
2022-09-18T13:48:27.169Z,1.33
2022-09-18T13:50:57.940Z,1.30
2022-09-18T13:53:33.992Z,1.10
2022-09-18T13:56:01.908Z,1.30
2022-09-18T13:58:53.284Z,1.00
2022-09-18T14:02:03.420Z,1.00
2022-09-18T14:04:58.072Z,0.90
2022-09-18T14:08:04.128Z,1.20
2022-09-18T14:10:36.304Z,1.00
2022-09-18T14:13:30.193Z,0.97
2022-09-18T14:16:03.530Z,1.60
2022-09-18T14:18:40.733Z,1.10
2022-09-18T14:21:21.941Z,1.10
2022-09-18T14:24:07.039Z,1.13
2022-09-18T14:27:01.251Z,0.90
2022-09-18T14:29:33.301Z,0.70
2022-09-18T14:32:03.487Z,0.80
2022-09-18T14:34:39.056Z,1.13
2022-09-18T14:37:27.771Z,0.90
2022-09-18T14:39:56.561Z,2.10
2022-09-18T14:42:33.149Z,1.10
2022-09-18T14:45:21.857Z,0.77
2022-09-18T14:47:51.189Z,0.97
2022-09-18T14:50:31.757Z,0.87
2022-09-18T14:53:01.328Z,1.00
2022-09-18T14:55:33.516Z,0.83
2022-09-18T14:58:05.761Z,1.10
2022-09-18T15:00:35.505Z,0.80
2022-09-18T15:03:07.646Z,0.97
2022-09-18T15:05:35.666Z,1.23
2022-09-18T15:08:06.498Z,1.47
2022-09-18T15:10:38.738Z,0.93
2022-09-18T15:13:08.773Z,1.10
2022-09-18T15:15:39.536Z,0.80
2022-09-18T15:18:20.258Z,0.90
2022-09-18T15:20:50.372Z,1.40
2022-09-18T15:23:19.800Z,1.33
2022-09-18T15:25:51.628Z,1.30
2022-09-18T15:28:21.456Z,1.70
2022-09-18T15:30:51.465Z,1.07
2022-09-18T15:33:25.617Z,0.80
2022-09-18T15:35:55.152Z,1.50
2022-09-18T15:38:26.412Z,1.00
2022-09-18T15:40:55.538Z,1.50
2022-09-18T15:43:43.369Z,1.10
2022-09-18T15:46:13.026Z,1.50
2022-09-18T15:48:45.261Z,1.33
2022-09-18T15:51:16.999Z,1.43
2022-09-18T15:54:09.242Z,3.30
2022-09-18T15:56:39.964Z,1.50
2022-09-18T15:59:17.862Z,1.00
2022-09-18T16:01:48.557Z,1.53
2022-09-18T16:04:20.617Z,1.50
2022-09-18T16:06:55.457Z,1.80
2022-09-18T16:09:30.683Z,1.43
2022-09-18T16:12:01.785Z,1.33
2022-09-18T16:14:45.234Z,2.50
2022-09-18T16:17:39.172Z,1.50
2022-09-18T16:20:28.058Z,1.70
2022-09-18T16:22:59.533Z,1.30
2022-09-18T16:25:30.025Z,1.70
2022-09-18T16:27:59.696Z,1.30
2022-09-18T16:30:29.721Z,1.00
2022-09-18T16:33:03.845Z,1.13
2022-09-18T16:35:33.124Z,0.90
2022-09-18T16:38:00.956Z,1.00
2022-09-18T16:40:31.231Z,1.17
2022-09-18T16:42:59.177Z,1.30
2022-09-18T16:45:27.925Z,0.90
2022-09-18T16:48:00.590Z,1.10
2022-09-18T16:50:28.914Z,1.27
2022-09-18T16:53:01.395Z,1.00
2022-09-18T16:55:31.146Z,1.10
2022-09-18T16:57:59.062Z,1.40
2022-09-18T17:00:26.990Z,1.10
2022-09-18T17:02:55.708Z,1.30
2022-09-18T17:05:23.633Z,1.53
2022-09-18T17:07:51.521Z,1.83
2022-09-18T17:10:20.795Z,2.23
2022-09-18T17:12:48.607Z,4.70
2022-09-18T17:15:16.550Z,3.50
2022-09-18T17:17:45.517Z,2.87
2022-09-18T17:20:17.613Z,3.10
2022-09-18T17:22:45.934Z,4.63
2022-09-18T17:25:15.111Z,4.10
2022-09-18T17:27:44.521Z,3.20
2022-09-18T17:30:13.213Z,3.77
2022-09-18T17:32:41.080Z,3.00
2022-09-18T17:35:09.233Z,2.87
2022-09-18T17:37:37.172Z,2.10
2022-09-18T17:40:05.803Z,1.70
2022-09-18T17:42:34.121Z,2.23
2022-09-18T17:45:03.417Z,1.90
2022-09-18T17:47:31.293Z,1.50
2022-09-18T17:49:59.118Z,1.73
2022-09-18T17:52:27.412Z,1.97
2022-09-18T17:54:55.289Z,1.50
2022-09-18T17:57:23.141Z,2.47
2022-09-18T17:59:50.986Z,2.43
2022-09-18T18:02:20.285Z,1.63
2022-09-18T18:04:48.145Z,2.10
2022-09-18T18:07:16.238Z,1.97
2022-09-18T18:09:44.051Z,2.10
2022-09-18T18:12:11.964Z,1.70
2022-09-18T18:14:39.802Z,1.60
2022-09-18T18:17:08.464Z,1.70
2022-09-18T18:19:37.698Z,1.33
2022-09-18T18:22:06.051Z,1.40
2022-09-18T18:24:34.105Z,1.67
2022-09-18T18:27:04.424Z,1.70
2022-09-18T18:29:32.649Z,1.50
2022-09-18T18:32:00.523Z,1.60
2022-09-18T18:34:28.402Z,1.63
2022-09-18T18:36:57.581Z,1.67
2022-09-18T18:39:25.391Z,1.57
2022-09-18T18:41:53.216Z,1.50
2022-09-18T18:44:21.058Z,2.10
2022-09-18T18:46:50.090Z,3.93
2022-09-18T18:49:18.912Z,8.10
2022-09-18T18:51:48.304Z,3.70
2022-09-18T18:54:19.032Z,3.40
2022-09-18T18:56:47.625Z,2.00
2022-09-18T18:59:17.848Z,1.87
2022-09-18T19:01:47.210Z,2.10
2022-09-18T19:04:18.953Z,1.80
2022-09-18T19:06:48.769Z,1.43
2022-09-18T19:09:20.848Z,1.60
2022-09-18T19:11:50.049Z,2.00
2022-09-18T19:14:19.532Z,1.50
2022-09-18T19:16:48.257Z,1.80
2022-09-18T19:19:18.061Z,1.73
2022-09-18T19:21:46.203Z,1.37
2022-09-18T19:24:14.780Z,1.23
2022-09-18T19:26:44.068Z,1.40
2022-09-18T19:29:14.877Z,1.50
2022-09-18T19:31:44.349Z,1.40
2022-09-18T19:34:13.622Z,1.30
2022-09-18T19:36:47.145Z,1.47
2022-09-18T19:39:15.346Z,1.40
2022-09-18T19:41:48.587Z,1.50
2022-09-18T19:44:22.896Z,1.30
2022-09-18T19:46:52.390Z,2.10
2022-09-18T19:49:23.515Z,1.70
2022-09-18T19:51:51.349Z,1.30
2022-09-18T19:54:19.533Z,1.40
2022-09-18T19:56:49.518Z,1.30
2022-09-18T19:59:18.184Z,1.70
2022-09-18T20:01:46.336Z,1.63
2022-09-18T20:04:14.217Z,1.40
2022-09-18T20:06:42.418Z,1.60
2022-09-18T20:09:10.724Z,1.50
2022-09-18T20:11:38.600Z,1.70
2022-09-18T20:14:07.986Z,1.40
2022-09-18T20:16:35.838Z,1.40
2022-09-18T20:19:05.851Z,1.57
2022-09-18T20:21:33.745Z,1.30
2022-09-18T20:24:01.905Z,1.40
2022-09-18T20:26:29.940Z,1.70
2022-09-18T20:28:57.788Z,1.23
2022-09-18T20:31:27.150Z,1.20
2022-09-18T20:33:56.024Z,1.40
2022-09-18T20:36:25.616Z,1.40
2022-09-18T20:38:57.717Z,1.17
2022-09-18T20:41:27.975Z,1.90
2022-09-18T20:43:56.117Z,1.20
2022-09-18T20:46:27.353Z,1.20
2022-09-18T20:48:55.902Z,1.30
2022-09-18T20:51:26.663Z,1.10
2022-09-18T20:53:57.149Z,1.23
2022-09-18T20:56:26.627Z,1.20
2022-09-18T20:58:54.928Z,1.73
2022-09-18T21:01:25.515Z,1.40
2022-09-18T21:03:57.061Z,1.60
2022-09-18T21:06:27.085Z,1.40
2022-09-18T21:08:56.427Z,1.10
2022-09-18T21:11:26.340Z,1.70
2022-09-18T21:13:55.852Z,1.23
2022-09-18T21:16:26.070Z,1.57
2022-09-18T21:18:57.781Z,1.20
2022-09-18T21:21:26.896Z,1.50
2022-09-18T21:23:56.046Z,1.53
2022-09-18T21:26:25.937Z,1.37
2022-09-18T21:28:55.574Z,1.40
2022-09-18T21:31:24.592Z,1.40
2022-09-18T21:33:53.213Z,1.40
2022-09-18T21:36:24.164Z,1.70
2022-09-18T21:38:53.970Z,1.30
2022-09-18T21:41:24.625Z,1.23
2022-09-18T21:43:54.005Z,1.27
2022-09-18T21:46:23.857Z,1.43
2022-09-18T21:48:54.530Z,1.53
2022-09-18T21:51:23.688Z,1.27
2022-09-18T21:53:51.529Z,1.37
2022-09-18T21:56:21.016Z,1.83
2022-09-18T21:58:50.224Z,1.20
2022-09-18T22:01:19.624Z,1.30
2022-09-18T22:03:52.210Z,1.20
2022-09-18T22:06:21.549Z,1.00
2022-09-18T22:08:54.556Z,1.27
2022-09-18T22:11:26.129Z,1.20
2022-09-18T22:13:54.674Z,1.80
2022-09-18T22:16:24.214Z,1.60
2022-09-18T22:18:53.001Z,1.20
2022-09-18T22:21:22.545Z,1.30
2022-09-18T22:23:53.487Z,1.30
2022-09-18T22:26:22.448Z,1.20
2022-09-18T22:28:51.186Z,1.23
2022-09-18T22:31:19.203Z,1.67
2022-09-18T22:33:47.332Z,2.03
2022-09-18T22:36:15.634Z,1.27
2022-09-18T22:38:43.821Z,1.10
2022-09-18T22:41:13.141Z,1.30
2022-09-18T22:43:41.310Z,1.20
2022-09-18T22:46:11.442Z,1.47
2022-09-18T22:48:39.892Z,1.30
2022-09-18T22:51:09.353Z,1.27
2022-09-18T22:53:39.274Z,1.20
2022-09-18T22:56:12.828Z,1.60
2022-09-18T22:58:42.226Z,1.20
2022-09-18T23:01:11.802Z,1.20
2022-09-18T23:03:40.749Z,1.23
2022-09-18T23:06:09.570Z,1.00
2022-09-18T23:08:38.394Z,1.20
2022-09-18T23:11:08.602Z,1.20
2022-09-18T23:13:38.500Z,1.33
2022-09-18T23:16:09.571Z,1.70
2022-09-18T23:18:38.143Z,1.50
2022-09-18T23:21:08.748Z,1.20
2022-09-18T23:23:39.503Z,1.70
2022-09-18T23:26:09.381Z,1.57
2022-09-18T23:28:40.828Z,1.53
2022-09-18T23:31:11.165Z,1.40
2022-09-18T23:33:39.733Z,1.43
2022-09-18T23:36:09.512Z,1.20
2022-09-18T23:38:37.980Z,1.30
2022-09-18T23:41:07.468Z,1.50
2022-09-18T23:43:35.697Z,1.77
2022-09-18T23:46:06.028Z,1.80
2022-09-18T23:48:33.873Z,1.60
2022-09-18T23:51:02.709Z,1.10
2022-09-18T23:53:37.436Z,1.80
2022-09-18T23:56:08.446Z,1.60
2022-09-18T23:58:36.984Z,1.57
